Metar z pełnej godziny Komunikat METAR ze strony awiacja.imgw.pl Metar G00 EPWA METAR EPWA 292000Z 36011KT CAVOK 15/05 Q1020 NOSIG=